Time;durP1;ratioP1;P1;durP2;ratioP2;P2;SDS_P1;SDS_P2;PMS_P1;PMS_P2;Temp;Humidity;BMP_temperature;BMP_pressure;BME280_temperature;BME280_humidity;BME280_pressure;Samples;Min_cycle;Max_cycle;Signal;HPM_P1;HPM_P2
2023/04/20 00:00:11;;;;;;;30.00;21.13;;;9.20;99.90;;;;;;4790968;29;20031;-89
2023/04/20 00:02:40;;;;;;;31.52;21.10;;;9.20;99.90;;;;;;4806294;29;20042;-90
2023/04/20 00:05:08;;;;;;;31.77;21.52;;;9.20;99.90;;;;;;4807690;29;20037;-93
2023/04/20 00:07:37;;;;;;;32.70;21.83;;;9.10;99.90;;;;;;4794637;29;20055;-89
2023/04/20 00:10:07;;;;;;;32.28;21.58;;;9.10;99.90;;;;;;4794557;29;20047;-89
2023/04/20 00:12:33;;;;;;;30.25;20.45;;;9.10;99.90;;;;;;4794608;29;20023;-89
2023/04/20 00:14:59;;;;;;;30.27;20.25;;;9.10;99.90;;;;;;4794570;29;20037;-90
2023/04/20 00:17:25;;;;;;;30.30;19.83;;;9.10;99.90;;;;;;4794746;29;20065;-90
2023/04/20 00:19:52;;;;;;;29.27;19.00;;;9.10;99.90;;;;;;4794706;29;20118;-89
2023/04/20 00:22:18;;;;;;;31.17;20.75;;;9.10;99.90;;;;;;4794353;29;20027;-91
2023/04/20 00:24:45;;;;;;;28.38;19.40;;;9.10;99.90;;;;;;4794451;29;20039;-90
2023/04/20 00:27:11;;;;;;;29.33;19.92;;;9.00;99.90;;;;;;4794482;29;20046;-91
2023/04/20 00:29:42;;;;;;;29.48;20.42;;;9.00;99.90;;;;;;4794645;29;20069;-90
2023/04/20 00:32:09;;;;;;;31.35;20.50;;;9.00;99.90;;;;;;4809301;29;20122;-89
2023/04/20 00:34:35;;;;;;;27.05;19.40;;;9.00;99.90;;;;;;4795254;29;20034;-91
2023/04/20 00:37:02;;;;;;;28.20;18.63;;;9.00;99.90;;;;;;4794197;29;20037;-89
2023/04/20 00:39:28;;;;;;;26.60;18.08;;;8.90;99.90;;;;;;4809168;29;20035;-89
2023/04/20 00:42:02;;;;;;;31.98;20.45;;;8.90;99.90;;;;;;4794024;29;20039;-91
2023/04/20 00:44:29;;;;;;;33.55;22.42;;;8.80;99.90;;;;;;4794228;29;20088;-90
2023/04/20 00:46:56;;;;;;;32.20;21.92;;;8.80;99.90;;;;;;4811053;29;20134;-89
2023/04/20 00:49:30;;;;;;;30.63;19.67;;;8.80;99.90;;;;;;4794737;29;20183;-92
2023/04/20 00:51:58;;;;;;;36.63;21.17;;;8.80;99.90;;;;;;4793988;29;20198;-91
2023/04/20 00:54:29;;;;;;;33.30;21.95;;;8.80;99.90;;;;;;4794132;29;20042;-91
2023/04/20 00:56:59;;;;;;;29.70;20.40;;;8.80;99.90;;;;;;4808678;29;20521;-90
2023/04/20 00:59:26;;;;;;;29.42;20.70;;;8.80;99.90;;;;;;4794339;29;20038;-90
2023/04/20 01:01:52;;;;;;;31.65;22.23;;;8.70;99.90;;;;;;4793840;29;20050;-89
2023/04/20 01:04:19;;;;;;;28.85;19.55;;;8.60;99.90;;;;;;4794019;29;20027;-91
2023/04/20 01:06:45;;;;;;;27.50;19.60;;;8.70;99.90;;;;;;4793527;29;20083;-90
2023/04/20 01:09:14;;;;;;;40.20;22.98;;;8.60;99.90;;;;;;4793351;29;20409;-90
2023/04/20 01:11:40;;;;;;;44.53;25.63;;;8.60;99.90;;;;;;4793555;29;20030;-90
2023/04/20 01:14:10;;;;;;;48.80;25.85;;;8.60;99.90;;;;;;4793672;29;20035;-89
2023/04/20 01:16:36;;;;;;;39.20;22.92;;;8.60;99.90;;;;;;4793184;29;20031;-91
2023/04/20 01:19:04;;;;;;;43.85;23.42;;;8.60;99.90;;;;;;4808228;29;20035;-89
2023/04/20 01:21:32;;;;;;;42.53;25.08;;;8.60;99.90;;;;;;4793361;29;20557;-89
2023/04/20 01:23:59;;;;;;;38.53;23.52;;;8.70;99.90;;;;;;4793276;29;20047;-89
2023/04/20 01:26:26;;;;;;;39.78;24.30;;;8.70;99.90;;;;;;4793438;29;20523;-89
2023/04/20 01:28:52;;;;;;;36.55;22.80;;;8.70;99.90;;;;;;4793185;29;20035;-89
2023/04/20 01:31:19;;;;;;;38.10;23.50;;;8.60;99.90;;;;;;4808233;29;20494;-89
2023/04/20 01:33:45;;;;;;;38.33;22.40;;;8.40;99.90;;;;;;4793132;29;20112;-91
2023/04/20 01:36:12;;;;;;;34.38;20.73;;;8.40;99.90;;;;;;4793249;29;20045;-90
2023/04/20 01:38:39;;;;;;;34.00;20.80;;;8.40;99.90;;;;;;4808221;29;20039;-88
2023/04/20 01:41:07;;;;;;;29.77;19.55;;;8.30;99.90;;;;;;4792924;29;20401;-90
2023/04/20 01:43:36;;;;;;;32.35;20.05;;;8.30;99.90;;;;;;4808080;29;20030;-89
2023/04/20 01:46:04;;;;;;;27.67;18.85;;;8.30;99.90;;;;;;4807868;29;20031;-90
2023/04/20 01:48:31;;;;;;;35.20;19.63;;;8.40;99.90;;;;;;4792704;29;20046;-90
2023/04/20 01:50:58;;;;;;;26.77;18.50;;;8.50;99.90;;;;;;4792738;29;20057;-90
2023/04/20 01:53:24;;;;;;;27.00;18.38;;;8.40;99.90;;;;;;4807781;29;20094;-89
2023/04/20 01:55:51;;;;;;;25.85;18.00;;;8.40;99.90;;;;;;4808154;29;20191;-88
2023/04/20 01:58:17;;;;;;;26.85;18.85;;;8.40;99.90;;;;;;4792604;29;20411;-90
2023/04/20 02:00:44;;;;;;;30.25;19.00;;;8.30;99.90;;;;;;4792960;29;20039;-91
2023/04/20 02:03:11;;;;;;;30.48;19.42;;;8.30;99.90;;;;;;4804752;29;20027;-92
2023/04/20 02:05:38;;;;;;;29.83;19.80;;;8.30;99.90;;;;;;4825928;29;20519;-89
2023/04/20 02:08:05;;;;;;;28.65;19.67;;;8.40;99.90;;;;;;4826027;29;20532;-91
2023/04/20 02:10:31;;;;;;;23.15;17.50;;;8.30;99.90;;;;;;4810609;29;20038;-90
2023/04/20 02:12:58;;;;;;;24.75;17.48;;;8.30;99.90;;;;;;4810502;29;20117;-90
2023/04/20 02:15:24;;;;;;;25.75;17.73;;;8.30;99.90;;;;;;4826003;29;20038;-90
2023/04/20 02:17:51;;;;;;;29.67;18.27;;;8.30;99.90;;;;;;4826003;29;20484;-91
2023/04/20 02:20:18;;;;;;;29.38;19.27;;;8.30;99.90;;;;;;4810289;29;20060;-90
2023/04/20 02:22:45;;;;;;;32.78;20.48;;;8.20;99.90;;;;;;4825471;29;20496;-90
2023/04/20 02:25:13;;;;;;;26.90;18.38;;;8.10;99.90;;;;;;4825487;29;20045;-90
2023/04/20 02:27:40;;;;;;;27.77;19.40;;;8.10;99.90;;;;;;4824936;29;20374;-89
2023/04/20 02:30:07;;;;;;;31.92;20.58;;;8.10;99.90;;;;;;4810261;29;20408;-91
2023/04/20 02:32:34;;;;;;;33.22;21.20;;;8.10;99.90;;;;;;4802587;29;20078;-89
2023/04/20 02:35:00;;;;;;;33.65;20.45;;;8.10;99.90;;;;;;4792019;29;20091;-90
2023/04/20 02:37:27;;;;;;;36.53;20.60;;;8.10;99.90;;;;;;4792347;29;20126;-90
2023/04/20 02:39:53;;;;;;;36.53;21.42;;;8.10;99.90;;;;;;4792108;29;20169;-89
2023/04/20 02:42:19;;;;;;;37.75;21.50;;;8.10;99.90;;;;;;4791769;29;20095;-91
2023/04/20 02:44:48;;;;;;;37.25;22.08;;;8.10;99.90;;;;;;4792268;29;20113;-90
2023/04/20 02:47:15;;;;;;;33.65;21.20;;;8.10;99.90;;;;;;4792071;29;20130;-89
2023/04/20 02:49:42;;;;;;;33.45;20.38;;;8.10;99.90;;;;;;4791813;29;20501;-89
2023/04/20 02:52:09;;;;;;;34.78;20.13;;;8.00;99.90;;;;;;4791829;29;20034;-91
2023/04/20 02:54:36;;;;;;;32.25;18.80;;;7.90;99.90;;;;;;4791890;29;20035;-89
2023/04/20 02:57:03;;;;;;;34.90;18.95;;;7.90;99.90;;;;;;4794987;29;20114;-91
2023/04/20 02:59:29;;;;;;;30.60;19.35;;;8.00;99.90;;;;;;4825095;29;20515;-88
2023/04/20 03:02:04;;;;;;;33.22;21.27;;;7.90;99.90;;;;;;4824977;29;20037;-90
2023/04/20 03:04:31;;;;;;;36.75;22.48;;;7.90;99.90;;;;;;4824986;29;20114;-90
2023/04/20 03:07:09;;;;;;;27.15;18.98;;;7.90;99.90;;;;;;4809295;29;20031;-91
2023/04/20 03:09:40;;;;;;;31.55;19.60;;;8.00;99.90;;;;;;4824810;29;20050;-90
2023/04/20 03:12:34;;;;;;;30.08;19.95;;;8.00;99.90;;;;;;4824840;29;20034;-89
2023/04/20 03:15:23;;;;;;;34.67;20.30;;;8.00;99.90;;;;;;4824880;29;20032;-90
2023/04/20 03:18:17;;;;;;;46.58;24.58;;;7.90;99.90;;;;;;4810838;29;20159;-89
2023/04/20 03:20:44;;;;;;;34.83;20.85;;;7.90;99.90;;;;;;4824850;29;20042;-90
2023/04/20 03:23:10;;;;;;;34.53;21.27;;;7.90;99.90;;;;;;4809261;29;20484;-89
2023/04/20 03:25:37;;;;;;;29.95;19.50;;;7.90;99.90;;;;;;4824601;29;20041;-91
2023/04/20 03:28:24;;;;;;;33.22;21.55;;;7.90;99.90;;;;;;4824580;29;20038;-91
2023/04/20 03:30:51;;;;;;;53.58;24.25;;;7.90;99.90;;;;;;4824568;29;20039;-89
2023/04/20 03:33:18;;;;;;;38.10;22.15;;;7.80;99.90;;;;;;4824476;29;20061;-91
2023/04/20 03:35:44;;;;;;;33.53;20.33;;;7.80;99.90;;;;;;4824343;29;20038;-92
2023/04/20 03:38:10;;;;;;;35.15;21.75;;;7.80;99.90;;;;;;4824601;29;20038;-90
2023/04/20 03:40:37;;;;;;;32.47;21.42;;;7.80;99.90;;;;;;4823865;29;20038;-92
2023/04/20 03:43:04;;;;;;;31.80;20.55;;;7.70;99.90;;;;;;4824742;29;20074;-90
2023/04/20 03:45:30;;;;;;;45.95;22.88;;;7.70;99.90;;;;;;4824465;29;20384;-90
2023/04/20 03:47:57;;;;;;;55.88;22.70;;;7.70;99.90;;;;;;4824339;29;20034;-89
2023/04/20 03:50:25;;;;;;;67.60;25.75;;;7.60;99.90;;;;;;4825748;29;20080;-90
2023/04/20 03:52:51;;;;;;;88.82;26.75;;;7.70;99.90;;;;;;4824376;29;20022;-92
2023/04/20 03:55:18;;;;;;;58.85;22.25;;;7.70;99.90;;;;;;4824910;29;20065;-90
2023/04/20 03:57:53;;;;;;;45.75;20.95;;;7.70;99.90;;;;;;4820674;29;20474;-88
2023/04/20 04:00:20;;;;;;;29.33;18.88;;;7.60;99.90;;;;;;4806085;29;20459;-91
2023/04/20 04:02:46;;;;;;;41.80;20.27;;;7.60;99.90;;;;;;4806433;29;20026;-93
2023/04/20 04:05:17;;;;;;;39.78;20.27;;;7.60;99.90;;;;;;4791041;29;20042;-91
2023/04/20 04:07:44;;;;;;;45.72;23.30;;;7.60;99.90;;;;;;4791013;29;20045;-90
2023/04/20 04:10:12;;;;;;;41.17;18.70;;;7.60;99.90;;;;;;4790897;29;20107;-90
2023/04/20 04:12:39;;;;;;;38.50;19.50;;;7.60;99.90;;;;;;4790761;29;20122;-90
2023/04/20 04:15:06;;;;;;;58.28;22.85;;;7.50;99.90;;;;;;4790651;29;20026;-88
2023/04/20 04:17:38;;;;;;;86.20;22.40;;;7.60;99.90;;;;;;4805797;29;20443;-91
2023/04/20 04:20:09;;;;;;;39.63;19.55;;;7.70;99.90;;;;;;4790940;29;20050;-90
2023/04/20 04:22:36;;;;;;;98.40;22.83;;;7.60;99.90;;;;;;4790899;29;20035;-90
2023/04/20 04:25:28;;;;;;;49.13;22.23;;;7.70;99.90;;;;;;4790607;29;20039;-90
2023/04/20 04:27:58;;;;;;;33.97;19.45;;;7.80;99.90;;;;;;4806137;29;20139;-90
2023/04/20 04:30:26;;;;;;;45.75;19.10;;;7.80;99.90;;;;;;4805705;29;20121;-92
2023/04/20 04:32:54;;;;;;;68.95;22.90;;;7.80;99.90;;;;;;4790664;29;20540;-92
2023/04/20 04:35:21;;;;;;;83.93;24.50;;;7.90;99.90;;;;;;4790690;29;20054;-90
2023/04/20 04:37:47;;;;;;;47.50;20.90;;;7.90;99.90;;;;;;4790743;29;20125;-90
2023/04/20 04:40:15;;;;;;;53.85;20.83;;;8.00;99.90;;;;;;4790503;29;20034;-90
2023/04/20 04:42:44;;;;;;;48.78;18.67;;;8.00;99.90;;;;;;4805508;29;20031;-91
2023/04/20 04:45:12;;;;;;;35.90;17.80;;;8.10;99.90;;;;;;4805504;29;20501;-91
2023/04/20 04:47:42;;;;;;;31.77;18.52;;;8.20;99.90;;;;;;4805583;29;20035;-92
2023/04/20 04:50:09;;;;;;;34.35;19.75;;;8.50;99.90;;;;;;4805812;29;20054;-91
2023/04/20 04:52:36;;;;;;;29.95;17.73;;;8.60;99.90;;;;;;4808792;29;20030;-91
2023/04/20 04:55:06;;;;;;;32.17;17.60;;;8.70;99.90;;;;;;4808798;29;20106;-90
2023/04/20 04:57:33;;;;;;;25.17;15.00;;;9.00;99.90;;;;;;4808979;29;20031;-91
2023/04/20 05:00:00;;;;;;;29.38;16.02;;;9.20;99.90;;;;;;4808771;29;20159;-92
2023/04/20 05:02:26;;;;;;;45.30;16.83;;;9.40;99.90;;;;;;4809286;29;20035;-93
2023/04/20 05:04:53;;;;;;;40.25;15.32;;;9.70;99.90;;;;;;4808752;29;20397;-92
2023/04/20 05:07:19;;;;;;;23.13;14.65;;;10.00;99.90;;;;;;4809054;29;20031;-92
2023/04/20 05:09:45;;;;;;;42.63;17.17;;;10.40;99.90;;;;;;4809101;29;20045;-90
2023/04/20 05:12:11;;;;;;;34.15;15.65;;;10.70;99.90;;;;;;4808829;29;20031;-90
2023/04/20 05:14:38;;;;;;;18.33;15.75;;;11.20;99.90;;;;;;4809071;29;20030;-91
2023/04/20 05:17:04;;;;;;;23.40;18.85;;;11.90;99.90;;;;;;4808450;29;20030;-91
2023/04/20 05:19:30;;;;;;;26.00;22.17;;;12.60;99.90;;;;;;4808780;29;20033;-90
2023/04/20 05:21:56;;;;;;;24.65;21.95;;;13.20;99.90;;;;;;4821194;29;20125;-92
2023/04/20 05:24:23;;;;;;;31.40;24.35;;;13.80;99.90;;;;;;4811711;29;20030;-93
2023/04/20 05:26:49;;;;;;;25.23;22.52;;;14.30;99.90;;;;;;4829309;29;20480;-91
2023/04/20 05:29:15;;;;;;;34.55;24.23;;;14.70;99.90;;;;;;4811773;29;20038;-90
2023/04/20 05:31:42;;;;;;;26.13;23.40;;;15.20;99.90;;;;;;4811548;29;20034;-90
2023/04/20 05:34:08;;;;;;;25.40;23.20;;;15.40;99.90;;;;;;4830401;29;20180;-91
2023/04/20 05:36:34;;;;;;;25.05;23.15;;;16.10;99.90;;;;;;4839696;29;20098;-90
2023/04/20 05:39:01;;;;;;;25.02;22.98;;;16.90;99.90;;;;;;4827136;29;20034;-93
2023/04/20 05:41:30;;;;;;;27.30;24.83;;;17.50;99.90;;;;;;4810882;29;20044;-92
2023/04/20 05:43:56;;;;;;;26.42;24.15;;;18.10;99.90;;;;;;4811348;29;20034;-91
2023/04/20 05:46:23;;;;;;;27.50;25.08;;;18.60;99.90;;;;;;4826167;29;20051;-92
2023/04/20 05:48:49;;;;;;;27.60;25.38;;;18.90;99.90;;;;;;4825898;29;20037;-93
2023/04/20 05:51:16;;;;;;;26.45;24.45;;;19.30;99.90;;;;;;4825714;29;20489;-92
2023/04/20 05:53:42;;;;;;;26.75;24.77;;;19.50;99.90;;;;;;4810908;29;20034;-92
2023/04/20 05:56:08;;;;;;;27.75;25.63;;;19.60;99.90;;;;;;4826426;29;20035;-92
2023/04/20 05:58:36;;;;;;;25.55;23.55;;;19.90;99.90;;;;;;4810881;29;20046;-93
2023/04/20 06:01:03;;;;;;;24.17;22.55;;;20.10;99.90;;;;;;4826045;29;20026;-93
2023/04/20 06:03:30;;;;;;;25.17;23.08;;;20.20;99.90;;;;;;4809865;29;20043;-93
2023/04/20 06:05:56;;;;;;;24.48;22.77;;;20.30;99.90;;;;;;4825777;29;20031;-92
2023/04/20 06:08:23;;;;;;;24.48;22.70;;;20.60;99.90;;;;;;4810657;29;20088;-93
2023/04/20 06:10:54;;;;;;;25.38;23.55;;;20.90;99.90;;;;;;4810522;29;20031;-92
2023/04/20 06:13:21;;;;;;;24.77;22.98;;;21.00;99.90;;;;;;4810497;29;20034;-90
2023/04/20 06:15:48;;;;;;;23.73;22.02;;;20.70;99.90;;;;;;4825712;29;20041;-92
2023/04/20 06:18:15;;;;;;;24.50;22.80;;;20.90;99.90;;;;;;4826668;29;20057;-92
2023/04/20 06:20:44;;;;;;;25.13;23.25;;;21.00;99.90;;;;;;4825692;29;20117;-92
2023/04/20 06:23:11;;;;;;;28.42;25.52;;;21.40;99.90;;;;;;4825531;29;20038;-93
2023/04/20 06:25:38;;;;;;;25.48;23.67;;;21.50;99.90;;;;;;4810794;29;20511;-91
2023/04/20 06:28:05;;;;;;;23.77;22.08;;;21.90;99.90;;;;;;4825498;29;20075;-91
2023/04/20 06:30:34;;;;;;;25.02;23.23;;;21.90;99.90;;;;;;4810103;29;20157;-92
2023/04/20 06:33:02;;;;;;;22.73;21.17;;;22.00;99.90;;;;;;4825248;29;20050;-91
2023/04/20 06:35:28;;;;;;;22.75;21.10;;;22.10;99.90;;;;;;4825277;29;20043;-92
2023/04/20 06:37:58;;;;;;;21.10;19.80;;;22.50;99.90;;;;;;4825194;29;20038;-90
2023/04/20 06:40:28;;;;;;;22.52;21.02;;;22.20;99.90;;;;;;4810221;29;20042;-91
2023/04/20 06:42:54;;;;;;;22.05;20.58;;;22.10;99.90;;;;;;4810371;29;20038;-92
2023/04/20 06:45:21;;;;;;;21.13;19.88;;;21.60;99.90;;;;;;4810526;29;20038;-91
2023/04/20 06:47:47;;;;;;;22.30;20.90;;;21.00;99.90;;;;;;4809839;29;20027;-91
2023/04/20 06:50:14;;;;;;;22.60;21.00;;;21.60;99.90;;;;;;4809766;29;20412;-92
2023/04/20 06:52:44;;;;;;;22.67;21.20;;;21.90;99.90;;;;;;4825562;29;20045;-91
2023/04/20 06:55:10;;;;;;;22.35;20.80;;;21.70;99.90;;;;;;4832240;29;20023;-93
2023/04/20 06:57:42;;;;;;;23.40;21.73;;;21.60;99.90;;;;;;4829806;29;20027;-94
2023/04/20 07:00:11;;;;;;;22.45;20.92;;;21.90;99.90;;;;;;4810501;29;20030;-94
2023/04/20 07:02:45;;;;;;;22.30;20.88;;;21.90;99.90;;;;;;4824914;29;20503;-94
2023/04/20 07:05:12;;;;;;;22.40;20.95;;;22.10;99.90;;;;;;5039031;23;20053;-70
2023/04/20 07:07:39;;;;;;;22.45;20.95;;;21.80;99.90;;;;;;4828669;29;20097;-88
2023/04/20 07:10:08;;;;;;;21.90;20.60;;;22.30;99.90;;;;;;4812037;29;20053;-87
2023/04/20 07:12:35;;;;;;;21.73;20.25;;;22.30;99.90;;;;;;4828132;29;20033;-89
2023/04/20 07:15:06;;;;;;;26.85;21.02;;;22.30;99.90;;;;;;4824545;29;20460;-88
2023/04/20 08:43:00;;;;;;;20.77;19.58;;;23.10;99.90;;;;;;5008138;23;20137;-93
2023/04/20 08:45:26;;;;;;;21.83;20.00;;;23.70;99.90;;;;;;4849850;29;20081;-94
2023/04/20 08:47:53;;;;;;;21.60;20.13;;;22.70;99.90;;;;;;4834796;29;20062;-93
2023/04/20 08:50:19;;;;;;;21.98;20.58;;;22.30;99.90;;;;;;4833793;29;20074;-93
2023/04/20 08:52:46;;;;;;;22.38;21.08;;;22.60;99.90;;;;;;4833926;29;20025;-93
2023/04/20 08:55:19;;;;;;;22.08;20.60;;;23.40;99.90;;;;;;4840678;29;20025;-94
2023/04/20 08:57:50;;;;;;;21.40;20.17;;;22.50;99.90;;;;;;4863755;29;20048;-94
2023/04/20 09:00:17;;;;;;;21.25;20.05;;;22.60;99.90;;;;;;4867482;29;20033;-93
2023/04/20 09:02:54;;;;;;;22.13;20.52;;;22.70;99.90;;;;;;4855850;29;20115;-94
2023/04/20 09:05:29;;;;;;;21.80;20.50;;;22.90;99.90;;;;;;4851982;29;20033;-94
2023/04/20 09:07:58;;;;;;;22.05;20.50;;;22.60;99.90;;;;;;4851220;29;20063;-94
2023/04/20 09:10:26;;;;;;;22.00;20.60;;;22.20;99.90;;;;;;4851702;29;20135;-93
2023/04/20 09:12:53;;;;;;;22.83;21.42;;;21.80;99.90;;;;;;4851222;29;20037;-93
2023/04/20 09:15:27;;;;;;;21.70;20.40;;;21.70;99.90;;;;;;4851597;29;20116;-92
2023/04/20 09:17:54;;;;;;;21.10;19.80;;;22.00;99.90;;;;;;4851814;29;20037;-92
2023/04/20 09:20:31;;;;;;;20.92;19.73;;;22.40;99.90;;;;;;4852290;29;20522;-92
2023/04/20 09:23:13;;;;;;;21.60;20.13;;;22.60;99.90;;;;;;4853360;29;20120;-92
2023/04/20 09:25:42;;;;;;;21.75;20.25;;;22.50;99.90;;;;;;4852645;29;20082;-93
2023/04/20 09:28:09;;;;;;;21.70;20.27;;;22.60;99.90;;;;;;4853367;29;20037;-94
2023/04/20 09:30:50;;;;;;;21.67;20.17;;;22.60;99.90;;;;;;4851736;29;20040;-93
2023/04/20 09:33:18;;;;;;;21.30;20.02;;;22.60;99.90;;;;;;4852074;29;20033;-94
2023/04/20 09:35:45;;;;;;;21.60;20.20;;;22.60;99.90;;;;;;4835750;29;20053;-93
2023/04/20 09:38:15;;;;;;;20.52;19.38;;;22.50;99.90;;;;;;4850804;29;20033;-94
2023/04/20 09:40:42;;;;;;;21.27;19.98;;;22.20;99.90;;;;;;4851316;29;20037;-94
2023/04/20 09:43:19;;;;;;;22.08;20.48;;;21.70;99.90;;;;;;4851280;29;20073;-94
2023/04/20 09:45:46;;;;;;;21.55;19.98;;;21.50;99.90;;;;;;4851061;29;20055;-94
2023/04/20 09:48:18;;;;;;;22.48;20.80;;;21.40;99.90;;;;;;4851450;29;20021;-95
2023/04/20 09:50:46;;;;;;;21.45;20.05;;;21.30;99.90;;;;;;4851022;29;20051;-94
2023/04/20 09:53:16;;;;;;;21.70;20.10;;;21.00;99.90;;;;;;4851431;29;20029;-93
2023/04/20 09:55:47;;;;;;;21.73;19.70;;;21.20;99.90;;;;;;4851269;29;20045;-95
2023/04/20 09:58:14;;;;;;;21.55;19.98;;;21.30;99.90;;;;;;4852667;29;20036;-94
2023/04/20 10:00:41;;;;;;;20.75;18.88;;;21.40;99.90;;;;;;4857631;29;20025;-93
2023/04/20 10:03:09;;;;;;;20.00;18.80;;;21.50;99.90;;;;;;4851426;29;20040;-91
2023/04/20 10:05:38;;;;;;;21.08;19.58;;;21.10;99.90;;;;;;4860342;29;20037;-92
2023/04/20 10:08:05;;;;;;;20.45;19.05;;;20.60;99.90;;;;;;4867667;29;20061;-93
2023/04/20 10:10:45;;;;;;;20.75;19.38;;;20.60;99.90;;;;;;4867022;29;20052;-92
2023/04/20 10:13:11;;;;;;;22.00;20.55;;;20.40;99.90;;;;;;4855080;29;20028;-94
2023/04/20 10:15:39;;;;;;;21.27;19.90;;;20.30;99.90;;;;;;4851753;29;20025;-95
2023/04/20 10:18:23;;;;;;;21.50;19.98;;;20.10;99.90;;;;;;4851342;29;20379;-92
2023/04/20 10:21:02;;;;;;;21.77;20.17;;;19.90;99.90;;;;;;4850324;29;20551;-94
2023/04/20 10:23:29;;;;;;;21.85;20.30;;;19.90;99.90;;;;;;4853554;29;20041;-94
2023/04/20 10:25:58;;;;;;;22.60;20.75;;;19.90;99.90;;;;;;4850366;29;20036;-93
2023/04/20 10:28:25;;;;;;;20.70;19.40;;;19.50;99.90;;;;;;4849987;29;20032;-93
2023/04/20 10:30:52;;;;;;;20.20;18.80;;;18.80;99.90;;;;;;4850018;29;20069;-91
2023/04/20 10:33:19;;;;;;;20.40;19.10;;;18.60;99.90;;;;;;4850220;29;20035;-92
2023/04/20 10:35:53;;;;;;;21.13;19.63;;;18.40;99.90;;;;;;4850052;29;20498;-92
2023/04/20 10:38:46;;;;;;;;;;;18.40;99.90;;;;;;4850550;29;20121;-92
2023/04/20 10:41:13;;;;;;;20.58;19.08;;;18.70;99.90;;;;;;4855637;29;20404;-91
2023/04/20 10:43:42;;;;;;;19.63;18.23;;;19.00;99.90;;;;;;4860829;29;20045;-92
2023/04/20 10:46:20;;;;;;;25.13;22.77;;;19.00;99.90;;;;;;4856286;29;20033;-93
2023/04/20 10:48:51;;;;;;;17.77;16.63;;;18.70;99.90;;;;;;4859537;23;20060;-92
2023/04/20 10:51:18;;;;;;;17.65;16.55;;;18.50;99.90;;;;;;4850279;29;20044;-94
2023/04/20 10:53:44;;;;;;;19.25;17.52;;;18.40;99.90;;;;;;4859981;29;20037;-92
2023/04/20 10:56:11;;;;;;;19.50;17.60;;;18.50;99.90;;;;;;4846545;29;20034;-93
2023/04/20 10:58:38;;;;;;;19.83;18.23;;;18.50;99.90;;;;;;4831240;29;20033;-92
2023/04/20 11:01:05;;;;;;;17.85;16.50;;;18.30;99.90;;;;;;4831083;29;20551;-93
2023/04/20 11:03:33;;;;;;;18.90;17.35;;;18.40;99.90;;;;;;4847791;29;20038;-90
2023/04/20 11:06:00;;;;;;;16.85;15.52;;;18.30;99.90;;;;;;4831342;29;20083;-92
2023/04/20 11:08:37;;;;;;;16.05;14.95;;;18.00;99.90;;;;;;4846881;29;20034;-92
2023/04/20 11:11:26;;;;;;;13.93;12.90;;;17.80;99.90;;;;;;4845949;29;20041;-91
2023/04/20 11:14:11;;;;;;;14.02;12.80;;;17.70;99.90;;;;;;4846214;29;20044;-92
2023/04/20 11:16:38;;;;;;;13.52;12.20;;;17.80;99.90;;;;;;4831611;29;20046;-91
2023/04/20 11:19:05;;;;;;;11.27;10.38;;;17.60;99.90;;;;;;4845969;29;20068;-94
2023/04/20 11:21:41;;;;;;;9.68;8.88;;;17.70;99.90;;;;;;4830999;29;20116;-93
2023/04/20 11:24:19;;;;;;;11.00;10.10;;;17.60;99.90;;;;;;4845711;29;20025;-93
2023/04/20 11:26:49;;;;;;;10.90;9.85;;;17.50;99.90;;;;;;4830657;29;20040;-93
2023/04/20 11:29:32;;;;;;;10.05;9.15;;;17.70;99.90;;;;;;4846148;29;20045;-93
2023/04/20 11:32:02;;;;;;;10.10;9.10;;;17.90;99.90;;;;;;4846550;29;20033;-93
2023/04/20 11:34:29;;;;;;;9.95;9.25;;;18.10;99.90;;;;;;4830721;29;20395;-92
2023/04/20 11:36:55;;;;;;;10.20;9.30;;;17.90;99.90;;;;;;4830935;29;20046;-93
2023/04/20 11:39:24;;;;;;;10.77;9.77;;;17.80;99.90;;;;;;4845748;29;20070;-91
2023/04/20 11:41:51;;;;;;;10.88;9.88;;;17.90;99.90;;;;;;4830930;29;20036;-93
2023/04/20 11:44:21;;;;;;;10.68;9.77;;;17.90;99.90;;;;;;4845898;29;20034;-91
2023/04/20 11:46:49;;;;;;;11.02;9.65;;;17.80;99.90;;;;;;4847333;29;20050;-92
2023/04/20 11:49:16;;;;;;;10.23;9.48;;;17.70;99.90;;;;;;4831316;29;20053;-93
2023/04/20 11:51:43;;;;;;;9.90;9.15;;;17.60;99.90;;;;;;4830651;29;20038;-93
2023/04/20 11:54:10;;;;;;;9.07;8.38;;;17.60;99.90;;;;;;4830494;29;20040;-91
2023/04/20 11:56:37;;;;;;;10.73;9.93;;;17.90;99.90;;;;;;4830953;29;20530;-91
2023/04/20 11:59:04;;;;;;;12.00;11.10;;;17.80;99.90;;;;;;4830932;29;20373;-96
2023/04/20 12:01:32;;;;;;;13.38;12.30;;;17.80;99.90;;;;;;4848209;29;20475;-94
2023/04/20 12:04:00;;;;;;;13.65;12.73;;;18.30;99.90;;;;;;4834484;29;20026;-95
2023/04/20 12:06:37;;;;;;;14.68;13.85;;;18.80;99.90;;;;;;4849615;29;20433;-92
2023/04/20 12:09:05;;;;;;;16.08;14.93;;;18.80;99.90;;;;;;4849620;29;20041;-94
2023/04/20 12:11:31;;;;;;;17.00;15.90;;;18.70;99.90;;;;;;4836681;29;20022;-92
2023/04/20 12:14:04;;;;;;;16.77;15.77;;;18.70;99.90;;;;;;4851232;29;20043;-94
2023/04/20 12:16:35;;;;;;;17.50;16.30;;;19.20;99.90;;;;;;4834353;29;20029;-94
2023/04/20 12:19:01;;;;;;;18.80;17.40;;;19.40;99.90;;;;;;4849374;29;20120;-93
2023/04/20 12:21:28;;;;;;;18.00;16.80;;;19.30;99.90;;;;;;4834799;29;20030;-92
2023/04/20 12:23:55;;;;;;;18.42;16.92;;;18.90;99.90;;;;;;4850600;29;20038;-91
2023/04/20 12:26:21;;;;;;;18.42;16.92;;;18.90;99.90;;;;;;4857089;29;20036;-90
2023/04/20 12:28:51;;;;;;;19.15;17.40;;;19.30;99.90;;;;;;4861846;29;20042;-93
2023/04/20 12:31:17;;;;;;;17.92;16.83;;;19.20;99.90;;;;;;4850818;29;20033;-93
2023/04/20 12:33:44;;;;;;;17.83;16.67;;;19.10;99.90;;;;;;4849041;29;20041;-91
2023/04/20 12:36:10;;;;;;;18.25;16.88;;;19.20;99.90;;;;;;4848905;29;20026;-94
2023/04/20 12:38:37;;;;;;;18.17;16.88;;;19.50;99.90;;;;;;4849253;29;20064;-94
2023/04/20 12:41:03;;;;;;;18.95;17.40;;;19.60;99.90;;;;;;4849073;29;20053;-92
2023/04/20 12:43:30;;;;;;;18.48;17.30;;;19.40;99.90;;;;;;4838605;29;20117;-92
2023/04/20 12:45:56;;;;;;;17.58;16.45;;;19.30;99.90;;;;;;4849032;29;20048;-94
2023/04/20 12:48:23;;;;;;;18.45;17.25;;;19.10;99.90;;;;;;4833291;29;20054;-90
2023/04/20 12:50:49;;;;;;;18.42;17.23;;;19.00;99.90;;;;;;4849678;29;20137;-93
2023/04/20 12:53:16;;;;;;;19.02;17.63;;;18.80;99.90;;;;;;4849411;29;20082;-93
2023/04/20 12:55:46;;;;;;;19.00;17.52;;;18.90;99.90;;;;;;4841503;29;20041;-92
2023/04/20 12:58:14;;;;;;;19.23;17.88;;;18.70;99.90;;;;;;4868106;29;20187;-92
2023/04/20 13:00:44;;;;;;;18.15;17.05;;;18.90;99.90;;;;;;4856486;29;20116;-95
2023/04/20 13:03:10;;;;;;;18.65;17.00;;;19.10;99.90;;;;;;4854038;29;20059;-93
2023/04/20 13:08:18;;;;;;;17.30;16.10;;;19.40;99.90;;;;;;5308624;23;20539;-92
2023/04/20 13:10:46;;;;;;;16.70;15.57;;;19.40;99.90;;;;;;4896528;24;20057;-93
2023/04/20 13:13:12;;;;;;;16.25;15.18;;;19.30;99.90;;;;;;4863586;29;20029;-94
2023/04/20 13:15:39;;;;;;;16.77;15.70;;;19.50;99.90;;;;;;4881835;29;20047;-93
2023/04/20 13:18:08;;;;;;;15.98;14.98;;;19.70;99.90;;;;;;4854770;29;20022;-93
2023/04/20 13:20:35;;;;;;;17.42;16.02;;;19.70;99.90;;;;;;4866299;29;20030;-95
2023/04/20 13:23:03;;;;;;;16.98;15.77;;;19.60;99.90;;;;;;4851766;29;20418;-93
2023/04/20 13:25:32;;;;;;;16.80;15.75;;;19.50;99.90;;;;;;4864888;29;20551;-93
2023/04/20 13:28:00;;;;;;;16.90;15.80;;;19.60;99.90;;;;;;4853059;29;20037;-93
2023/04/20 13:30:27;;;;;;;16.70;15.70;;;19.80;99.90;;;;;;4851227;29;20041;-94
2023/04/20 13:32:56;;;;;;;17.83;16.55;;;20.10;99.90;;;;;;4870958;29;20038;-93
2023/04/20 13:35:23;;;;;;;17.17;16.17;;;20.20;99.90;;;;;;4852070;29;20084;-93
2023/04/20 13:37:50;;;;;;;18.05;16.58;;;20.40;99.90;;;;;;4863802;29;20097;-94
2023/04/20 13:40:16;;;;;;;17.35;16.13;;;20.60;99.90;;;;;;4848088;29;20071;-93
2023/04/20 13:42:43;;;;;;;17.25;16.25;;;20.70;99.90;;;;;;4863207;29;20029;-95
2023/04/20 13:45:30;;;;;;;18.65;17.35;;;20.80;99.90;;;;;;4860977;29;20049;-95
2023/04/20 13:53:07;;;;;;;17.50;16.50;;;21.10;99.90;;;;;;4863584;29;20060;-93
2023/04/20 13:55:33;;;;;;;18.20;16.95;;;21.30;99.90;;;;;;4851460;29;20029;-93
2023/04/20 13:58:00;;;;;;;17.38;16.38;;;21.10;99.90;;;;;;4847367;29;20124;-93
2023/04/20 14:00:26;;;;;;;18.33;16.92;;;21.10;99.90;;;;;;4847255;29;20033;-93
2023/04/20 14:02:56;;;;;;;18.40;17.27;;;21.20;99.90;;;;;;4833638;29;20025;-95
2023/04/20 14:05:22;;;;;;;18.17;17.00;;;21.10;99.90;;;;;;4835567;29;20067;-93
2023/04/20 14:07:49;;;;;;;17.85;16.85;;;21.10;99.90;;;;;;4832457;29;20030;-94
2023/04/20 14:10:15;;;;;;;18.33;17.08;;;20.90;99.90;;;;;;4847856;29;20094;-94